Time;durP1;ratioP1;P1;durP2;ratioP2;P2;SDS_P1;SDS_P2;PMS_P1;PMS_P2;Temp;Humidity;BMP_temperature;BMP_pressure;BME280_temperature;BME280_humidity;BME280_pressure;Samples;Min_cycle;Max_cycle;Signal;HPM_P1;HPM_P2
2021/07/30 00:00:28;;;;;;;6.07;5.38;;;22.70;99.90;;;;;;5090123;28;20698;-77
2021/07/30 00:02:56;;;;;;;6.15;5.55;;;22.70;99.90;;;;;;5090106;28;20225;-79
2021/07/30 00:05:23;;;;;;;5.88;5.20;;;22.80;99.90;;;;;;5089189;28;20222;-78
2021/07/30 00:07:50;;;;;;;5.65;5.15;;;22.80;99.90;;;;;;5097148;28;20220;-77
2021/07/30 00:10:17;;;;;;;5.82;5.32;;;22.80;99.90;;;;;;5090423;28;20676;-77
2021/07/30 00:12:44;;;;;;;5.43;4.93;;;22.80;99.90;;;;;;5088712;28;20213;-77
2021/07/30 00:15:12;;;;;;;5.93;5.43;;;22.70;99.90;;;;;;5093027;28;20282;-77
2021/07/30 00:17:39;;;;;;;5.70;5.30;;;22.70;99.90;;;;;;5098941;28;20225;-78
2021/07/30 00:20:09;;;;;;;6.25;5.75;;;22.60;99.90;;;;;;5093841;28;20286;-78
2021/07/30 00:22:36;;;;;;;6.05;5.55;;;22.60;99.90;;;;;;5094525;28;20703;-78
2021/07/30 00:25:04;;;;;;;6.10;5.50;;;22.60;99.90;;;;;;5079625;28;20707;-78
2021/07/30 00:27:31;;;;;;;6.50;5.90;;;22.60;99.90;;;;;;5072956;28;20244;-77
2021/07/30 00:29:58;;;;;;;5.82;5.32;;;22.70;99.90;;;;;;5077709;28;20276;-78
2021/07/30 00:32:25;;;;;;;6.22;5.63;;;22.70;99.90;;;;;;5076268;28;20229;-78
2021/07/30 00:34:52;;;;;;;5.85;5.35;;;22.70;99.90;;;;;;5079772;28;20649;-78
2021/07/30 00:37:21;;;;;;;5.72;5.20;;;22.70;99.90;;;;;;5094818;28;20246;-77
2021/07/30 00:39:48;;;;;;;5.45;5.05;;;22.70;99.90;;;;;;5098997;27;20636;-78
2021/07/30 00:42:15;;;;;;;5.47;5.03;;;22.60;99.90;;;;;;5093824;27;20274;-77
2021/07/30 00:44:42;;;;;;;5.35;4.95;;;22.60;99.90;;;;;;5098042;28;20278;-78
2021/07/30 00:47:09;;;;;;;5.88;5.28;;;22.60;99.90;;;;;;5096719;27;20224;-77
2021/07/30 00:49:36;;;;;;;6.03;5.45;;;22.50;99.90;;;;;;5093453;27;20225;-78
2021/07/30 00:52:04;;;;;;;5.75;4.93;;;22.50;99.90;;;;;;5092129;28;20293;-78
2021/07/30 00:54:33;;;;;;;6.15;4.95;;;22.50;99.90;;;;;;5091636;28;20226;-77
2021/07/30 00:57:01;;;;;;;5.65;5.15;;;22.50;99.90;;;;;;5096710;27;20233;-77
2021/07/30 00:59:28;;;;;;;5.55;5.05;;;22.50;99.90;;;;;;5097136;27;20225;-77
2021/07/30 01:01:56;;;;;;;5.43;4.95;;;22.50;99.90;;;;;;5095192;28;20260;-77
2021/07/30 01:04:23;;;;;;;5.50;4.95;;;22.50;99.90;;;;;;5093191;28;20233;-77
2021/07/30 01:06:50;;;;;;;6.20;5.60;;;22.50;99.90;;;;;;5089682;27;20650;-77
2021/07/30 01:09:17;;;;;;;6.28;5.70;;;22.40;99.90;;;;;;5090342;27;20226;-78
2021/07/30 01:11:45;;;;;;;5.53;5.10;;;22.40;99.90;;;;;;5093931;28;20221;-77
2021/07/30 01:14:12;;;;;;;5.00;4.60;;;22.40;99.90;;;;;;5098394;27;20217;-77
2021/07/30 01:16:40;;;;;;;6.10;5.50;;;22.40;99.90;;;;;;5089883;28;20229;-78
2021/07/30 01:19:10;;;;;;;5.50;4.93;;;22.40;99.90;;;;;;5093570;27;20281;-77
2021/07/30 01:21:44;;;;;;;5.80;5.30;;;22.40;99.90;;;;;;5093216;28;20224;-78
2021/07/30 01:24:12;;;;;;;5.97;5.38;;;22.40;99.90;;;;;;5097594;27;20636;-76
2021/07/30 01:26:39;;;;;;;5.95;5.45;;;22.40;99.90;;;;;;5095786;28;20632;-77
2021/07/30 01:29:06;;;;;;;5.78;5.28;;;22.40;99.90;;;;;;5094468;28;20278;-77
2021/07/30 01:31:33;;;;;;;5.95;5.45;;;22.40;99.90;;;;;;5097771;27;20598;-77
2021/07/30 01:34:00;;;;;;;5.43;4.93;;;22.40;99.90;;;;;;5089328;27;20600;-78
2021/07/30 01:36:27;;;;;;;5.80;5.22;;;22.30;99.90;;;;;;5087476;28;20229;-77
2021/07/30 01:38:54;;;;;;;5.93;5.43;;;22.30;99.90;;;;;;5092886;27;20224;-77
2021/07/30 01:41:22;;;;;;;5.60;5.10;;;22.30;99.90;;;;;;5088580;28;20630;-77
2021/07/30 01:43:50;;;;;;;6.57;5.60;;;22.30;99.90;;;;;;5092933;27;20228;-77
2021/07/30 01:46:17;;;;;;;5.88;5.38;;;22.30;99.90;;;;;;5090935;28;20216;-77
2021/07/30 01:48:44;;;;;;;6.32;5.72;;;22.30;99.90;;;;;;5093994;27;20697;-77
2021/07/30 01:51:11;;;;;;;6.68;5.13;;;22.30;99.90;;;;;;5093944;27;20217;-77
2021/07/30 01:53:38;;;;;;;5.80;5.30;;;22.30;99.90;;;;;;5088036;28;20702;-77
2021/07/30 01:56:05;;;;;;;5.55;5.05;;;22.30;99.90;;;;;;5088773;28;20278;-78
2021/07/30 01:58:34;;;;;;;5.90;5.30;;;22.30;99.90;;;;;;5085453;27;20217;-79
2021/07/30 02:01:02;;;;;;;6.50;5.90;;;22.30;99.90;;;;;;5092887;27;20273;-77
2021/07/30 02:03:29;;;;;;;5.68;5.18;;;22.30;99.90;;;;;;5089878;28;20274;-77
2021/07/30 02:05:56;;;;;;;5.90;5.28;;;22.20;99.90;;;;;;5091346;28;20255;-77
2021/07/30 02:08:23;;;;;;;6.13;5.53;;;22.20;99.90;;;;;;5088756;28;20710;-76
2021/07/30 02:10:50;;;;;;;5.80;5.30;;;22.20;99.90;;;;;;5086664;27;20218;-77
2021/07/30 02:16:03;;;;;;;5.88;5.25;;;22.20;99.90;;;;;;5091367;27;20224;-77
2021/07/30 02:18:30;;;;;;;5.70;5.20;;;22.20;99.90;;;;;;5092927;28;20225;-78
2021/07/30 02:20:57;;;;;;;5.65;5.15;;;22.20;99.90;;;;;;5091973;27;20229;-78
2021/07/30 02:23:24;;;;;;;4.75;4.35;;;22.20;99.90;;;;;;5094232;27;20266;-77
2021/07/30 02:25:51;;;;;;;5.60;5.10;;;22.20;99.90;;;;;;5092068;28;20224;-77
2021/07/30 02:28:19;;;;;;;6.15;5.55;;;22.20;99.90;;;;;;5091302;28;20274;-77
2021/07/30 02:30:46;;;;;;;5.60;5.20;;;22.20;99.90;;;;;;5092277;27;20830;-77
2021/07/30 02:33:14;;;;;;;5.47;4.97;;;22.20;99.90;;;;;;5091293;28;20601;-78
2021/07/30 02:35:42;;;;;;;4.93;4.53;;;22.20;99.90;;;;;;5089677;28;20278;-77
2021/07/30 02:38:09;;;;;;;5.10;4.70;;;22.20;99.90;;;;;;5090086;28;20244;-77
2021/07/30 02:40:36;;;;;;;5.50;5.07;;;22.10;99.90;;;;;;5095253;27;20303;-77
2021/07/30 02:43:03;;;;;;;5.15;4.75;;;22.10;99.90;;;;;;5088740;28;20217;-78
2021/07/30 02:45:30;;;;;;;5.60;5.10;;;22.10;99.90;;;;;;5085848;27;20221;-77
2021/07/30 02:47:57;;;;;;;6.20;5.60;;;21.90;99.90;;;;;;5092084;28;20232;-77
2021/07/30 02:50:26;;;;;;;5.95;5.35;;;21.80;99.90;;;;;;5088894;28;20221;-77
2021/07/30 02:52:53;;;;;;;6.43;5.80;;;21.80;99.90;;;;;;5093395;28;20648;-77
2021/07/30 02:55:20;;;;;;;5.63;5.13;;;21.80;99.90;;;;;;5091761;27;20213;-78
2021/07/30 02:57:47;;;;;;;5.95;5.45;;;21.90;99.90;;;;;;5095414;28;20243;-77
2021/07/30 03:00:14;;;;;;;5.20;4.80;;;21.90;99.90;;;;;;5094565;28;20286;-80
2021/07/30 03:02:41;;;;;;;6.40;5.80;;;21.90;99.90;;;;;;5094139;28;20225;-77
2021/07/30 03:05:10;;;;;;;5.70;5.20;;;21.90;99.90;;;;;;5097446;28;20229;-78
2021/07/30 03:07:38;;;;;;;5.95;5.38;;;21.90;99.90;;;;;;5094792;27;20229;-78
2021/07/30 03:10:06;;;;;;;5.53;4.90;;;21.90;99.90;;;;;;5099211;28;20217;-76
2021/07/30 03:12:35;;;;;;;6.15;5.65;;;21.90;99.90;;;;;;5097281;27;20229;-78
2021/07/30 03:15:02;;;;;;;5.50;5.00;;;21.90;99.90;;;;;;5097731;28;20217;-78
2021/07/30 03:17:29;;;;;;;6.18;5.57;;;21.90;99.90;;;;;;5093581;27;20241;-77
2021/07/30 03:19:56;;;;;;;5.57;5.18;;;21.90;99.90;;;;;;5098756;28;20232;-78
2021/07/30 03:22:23;;;;;;;6.10;5.60;;;21.90;99.90;;;;;;5099098;27;20637;-78
2021/07/30 03:24:51;;;;;;;6.10;5.60;;;21.90;99.90;;;;;;5097145;27;20221;-77
2021/07/30 03:27:18;;;;;;;6.18;5.68;;;21.80;99.90;;;;;;5094118;27;20244;-79
2021/07/30 03:29:45;;;;;;;5.97;5.38;;;21.80;99.90;;;;;;5094679;28;20213;-77
2021/07/30 03:32:12;;;;;;;6.13;5.60;;;21.80;99.90;;;;;;5097084;27;20240;-78
2021/07/30 03:34:39;;;;;;;6.20;5.70;;;21.80;99.90;;;;;;5094243;27;20728;-78
2021/07/30 03:37:06;;;;;;;5.45;5.00;;;21.70;99.90;;;;;;5091640;27;20359;-78
2021/07/30 03:39:33;;;;;;;6.13;5.60;;;21.70;99.90;;;;;;5094713;28;20378;-77
2021/07/30 03:42:01;;;;;;;6.88;5.47;;;21.70;99.90;;;;;;5089459;27;20250;-77
2021/07/30 03:44:28;;;;;;;6.22;5.63;;;21.60;99.90;;;;;;5096017;27;20221;-78
2021/07/30 03:46:55;;;;;;;6.00;5.50;;;21.60;99.90;;;;;;5098599;28;20259;-77
2021/07/30 03:49:23;;;;;;;5.80;5.07;;;21.60;99.90;;;;;;5102635;28;20224;-77
2021/07/30 03:51:50;;;;;;;6.70;6.03;;;21.70;99.90;;;;;;5098374;27;20217;-77
2021/07/30 03:54:18;;;;;;;6.20;5.70;;;21.60;99.90;;;;;;5091136;28;20652;-77
2021/07/30 03:56:45;;;;;;;5.75;5.25;;;21.60;99.90;;;;;;5099886;28;20222;-78
2021/07/30 03:59:14;;;;;;;5.93;5.40;;;21.60;99.90;;;;;;5094053;28;20224;-78
2021/07/30 04:01:47;;;;;;;5.63;5.13;;;21.50;99.90;;;;;;5104582;28;20225;-78
2021/07/30 04:04:14;;;;;;;6.00;5.40;;;21.50;99.90;;;;;;5096550;27;20251;-77
2021/07/30 04:06:43;;;;;;;6.47;5.80;;;21.50;99.90;;;;;;5091913;28;20602;-77
2021/07/30 04:09:11;;;;;;;6.35;5.75;;;21.50;99.90;;;;;;5090533;28;20243;-78
2021/07/30 04:11:39;;;;;;;7.25;6.13;;;21.50;99.90;;;;;;5086433;28;20304;-77
2021/07/30 04:14:06;;;;;;;6.13;5.60;;;21.60;99.90;;;;;;5091766;27;20229;-77
2021/07/30 04:16:35;;;;;;;5.88;5.38;;;21.60;99.90;;;;;;5093306;28;20350;-77
2021/07/30 04:19:03;;;;;;;6.25;5.68;;;21.60;99.90;;;;;;5092451;27;20725;-77
2021/07/30 04:21:30;;;;;;;5.93;5.38;;;21.60;99.90;;;;;;5080941;27;20276;-77
2021/07/30 04:24:00;;;;;;;5.85;5.38;;;21.60;99.90;;;;;;5088450;28;20237;-76
2021/07/30 04:26:27;;;;;;;5.78;5.28;;;21.70;99.90;;;;;;5087746;28;20649;-77
2021/07/30 04:28:54;;;;;;;5.65;5.15;;;21.70;99.90;;;;;;5087215;28;20533;-77
2021/07/30 04:31:21;;;;;;;6.82;6.03;;;21.70;99.90;;;;;;5092469;27;20699;-77
2021/07/30 04:33:50;;;;;;;6.15;5.38;;;21.80;99.90;;;;;;5091068;27;20282;-78
2021/07/30 04:36:18;;;;;;;6.30;5.40;;;21.80;99.90;;;;;;5094064;27;20222;-77
2021/07/30 04:38:45;;;;;;;6.07;5.47;;;21.90;99.90;;;;;;5091303;28;20244;-77
2021/07/30 04:41:12;;;;;;;5.78;5.15;;;22.00;99.90;;;;;;5093799;28;20270;-78
2021/07/30 04:43:39;;;;;;;6.53;5.85;;;22.00;99.90;;;;;;5089203;27;20632;-77
2021/07/30 04:46:15;;;;;;;6.30;5.80;;;22.10;99.90;;;;;;5100097;27;20228;-77
2021/07/30 04:48:41;;;;;;;5.82;5.30;;;22.10;99.90;;;;;;5089965;27;20224;-76
2021/07/30 04:51:10;;;;;;;5.93;5.25;;;22.20;99.90;;;;;;5091694;28;20225;-77
2021/07/30 04:53:37;;;;;;;5.78;5.28;;;22.20;99.90;;;;;;5091837;27;20267;-78
2021/07/30 04:56:05;;;;;;;6.13;5.32;;;22.30;99.90;;;;;;5093486;28;20225;-78
2021/07/30 04:58:32;;;;;;;6.15;5.05;;;22.30;99.90;;;;;;5095792;28;20271;-78
2021/07/30 05:01:03;;;;;;;6.00;5.50;;;22.40;99.90;;;;;;5096534;28;20225;-78
2021/07/30 05:03:30;;;;;;;8.68;5.57;;;22.40;99.90;;;;;;5094128;27;20226;-77
2021/07/30 05:05:57;;;;;;;5.05;4.65;;;22.40;99.90;;;;;;5089449;28;20231;-77
2021/07/30 05:08:25;;;;;;;6.15;5.65;;;22.30;99.90;;;;;;5092702;27;20278;-76
2021/07/30 05:10:52;;;;;;;6.38;5.80;;;22.20;99.90;;;;;;5095202;28;20226;-77
2021/07/30 05:13:20;;;;;;;6.32;5.82;;;22.10;99.90;;;;;;5092615;28;20228;-77
2021/07/30 05:15:47;;;;;;;5.60;5.20;;;22.10;99.90;;;;;;5091570;28;20228;-77
2021/07/30 05:18:14;;;;;;;7.68;6.88;;;22.10;99.90;;;;;;5092739;28;20248;-77
2021/07/30 05:20:41;;;;;;;6.40;5.80;;;22.00;99.90;;;;;;5093414;28;20236;-77
2021/07/30 05:23:09;;;;;;;6.53;5.93;;;22.00;99.90;;;;;;5087355;28;20244;-77
2021/07/30 05:25:38;;;;;;;6.35;5.75;;;22.00;99.90;;;;;;5091561;28;20224;-78
2021/07/30 05:28:05;;;;;;;6.85;5.72;;;22.00;99.90;;;;;;5087673;28;20217;-77
2021/07/30 05:30:32;;;;;;;7.40;6.70;;;22.10;99.90;;;;;;5089334;28;20225;-76
2021/07/30 05:32:59;;;;;;;6.15;5.65;;;22.20;99.90;;;;;;5090370;28;20804;-77
2021/07/30 05:35:26;;;;;;;6.20;5.60;;;22.40;99.90;;;;;;5091666;28;20298;-77
2021/07/30 05:37:53;;;;;;;6.70;6.00;;;22.60;99.90;;;;;;5090077;27;20243;-77
2021/07/30 05:40:21;;;;;;;7.45;6.75;;;22.70;99.90;;;;;;5094175;27;20274;-78
2021/07/30 05:42:49;;;;;;;8.73;6.85;;;22.70;99.90;;;;;;5096789;28;20214;-77
2021/07/30 05:45:16;;;;;;;7.47;6.78;;;22.70;99.90;;;;;;5100153;28;20224;-76
2021/07/30 05:47:43;;;;;;;7.57;6.70;;;22.80;99.90;;;;;;5099112;28;20270;-77
2021/07/30 05:50:11;;;;;;;8.30;6.82;;;22.90;99.90;;;;;;5090603;28;20212;-76
2021/07/30 05:52:38;;;;;;;8.00;7.13;;;22.80;99.90;;;;;;5092123;27;20225;-77
2021/07/30 05:55:05;;;;;;;7.40;6.75;;;22.70;99.90;;;;;;5089386;28;20278;-76
2021/07/30 05:57:34;;;;;;;8.15;7.00;;;22.70;99.90;;;;;;5084925;28;20233;-77
2021/07/30 06:00:02;;;;;;;7.82;6.90;;;22.80;99.90;;;;;;5081347;27;20225;-77
2021/07/30 06:02:29;;;;;;;7.57;6.97;;;22.90;99.90;;;;;;5084746;28;20760;-77
2021/07/30 06:04:56;;;;;;;7.45;6.85;;;22.90;99.90;;;;;;5092851;27;20216;-78
2021/07/30 06:07:23;;;;;;;8.32;6.97;;;23.00;99.90;;;;;;5094853;27;20221;-78
2021/07/30 06:09:50;;;;;;;7.18;6.57;;;23.10;99.90;;;;;;5083191;28;20280;-78
2021/07/30 06:12:17;;;;;;;10.13;7.68;;;23.20;99.90;;;;;;5084244;27;20247;-78
2021/07/30 06:14:45;;;;;;;7.22;6.53;;;23.30;99.90;;;;;;5078980;28;20233;-77
2021/07/30 06:17:14;;;;;;;7.47;6.78;;;23.40;99.90;;;;;;5079723;27;20301;-77
2021/07/30 06:19:41;;;;;;;7.82;7.03;;;23.40;99.90;;;;;;5088050;27;20225;-79
2021/07/30 06:22:08;;;;;;;8.48;7.57;;;23.50;99.90;;;;;;5083622;27;20225;-77
2021/07/30 06:24:38;;;;;;;9.38;8.02;;;23.60;99.90;;;;;;5082060;28;20237;-77
2021/07/30 06:27:05;;;;;;;8.45;6.95;;;23.60;99.90;;;;;;5080795;28;20228;-77
2021/07/30 06:29:32;;;;;;;7.60;6.88;;;23.50;99.90;;;;;;5082032;28;20698;-78
2021/07/30 06:32:00;;;;;;;8.60;7.80;;;23.40;99.90;;;;;;5079209;28;20249;-77
2021/07/30 06:34:28;;;;;;;8.30;7.18;;;23.40;99.90;;;;;;5083240;28;20245;-78
2021/07/30 06:36:56;;;;;;;8.27;7.47;;;23.50;99.90;;;;;;5083046;27;20602;-78
2021/07/30 06:39:23;;;;;;;8.35;7.65;;;23.70;99.90;;;;;;5093356;28;20675;-77
2021/07/30 06:41:50;;;;;;;8.98;8.25;;;23.80;99.90;;;;;;5091035;27;20220;-77
2021/07/30 06:44:18;;;;;;;9.00;7.68;;;23.80;99.90;;;;;;5081138;27;20229;-78
2021/07/30 06:46:45;;;;;;;8.23;7.53;;;23.90;99.90;;;;;;5081621;28;20222;-79
2021/07/30 06:49:12;;;;;;;8.02;7.22;;;24.00;99.90;;;;;;5081207;28;20487;-78
2021/07/30 06:51:41;;;;;;;7.78;6.97;;;24.10;99.90;;;;;;5086705;28;20225;-76
2021/07/30 06:54:08;;;;;;;7.85;7.15;;;24.40;99.90;;;;;;5081512;28;20278;-78
2021/07/30 06:56:35;;;;;;;7.88;7.18;;;24.60;99.90;;;;;;5090635;27;20247;-77
2021/07/30 06:59:02;;;;;;;7.80;7.10;;;24.70;99.90;;;;;;5084580;27;20249;-78
2021/07/30 07:01:29;;;;;;;8.48;7.53;;;24.60;99.90;;;;;;5080044;27;20221;-77
2021/07/30 07:03:56;;;;;;;11.80;7.63;;;24.70;99.90;;;;;;5081178;28;20309;-77
2021/07/30 07:06:23;;;;;;;7.93;7.10;;;24.70;99.90;;;;;;5086099;28;20606;-78
2021/07/30 07:08:51;;;;;;;9.95;8.93;;;24.60;99.90;;;;;;5087733;28;20229;-78
2021/07/30 07:11:18;;;;;;;8.18;7.45;;;24.60;99.90;;;;;;5085720;28;20213;-78
2021/07/30 07:13:45;;;;;;;9.70;8.85;;;24.50;99.90;;;;;;5087858;28;20245;-79
2021/07/30 07:16:13;;;;;;;9.40;8.23;;;24.50;99.90;;;;;;5085363;28;20225;-78
2021/07/30 07:18:40;;;;;;;10.15;9.15;;;24.60;99.90;;;;;;5083206;28;20222;-78
2021/07/30 07:21:08;;;;;;;9.18;8.38;;;24.70;99.90;;;;;;5083977;28;20320;-77
2021/07/30 07:23:35;;;;;;;9.57;8.65;;;24.60;99.90;;;;;;5085802;28;20337;-77
2021/07/30 07:26:03;;;;;;;10.02;8.50;;;24.70;99.90;;;;;;5084911;28;20316;-77
2021/07/30 07:28:30;;;;;;;10.23;9.27;;;24.90;99.90;;;;;;5089151;28;20239;-77
2021/07/30 07:30:57;;;;;;;9.18;8.20;;;25.00;99.90;;;;;;5090192;28;20233;-79
2021/07/30 07:33:24;;;;;;;10.00;8.90;;;25.00;99.90;;;;;;5089516;27;20224;-78
2021/07/30 07:35:53;;;;;;;8.70;7.90;;;25.10;99.90;;;;;;5085451;28;20221;-77
2021/07/30 07:38:20;;;;;;;8.93;8.07;;;25.10;99.90;;;;;;5083244;28;20221;-79
2021/07/30 07:40:47;;;;;;;10.00;8.98;;;25.30;99.90;;;;;;5086177;28;20240;-78
2021/07/30 07:43:16;;;;;;;8.77;7.97;;;25.30;99.90;;;;;;5083204;27;20300;-78
2021/07/30 07:45:43;;;;;;;9.43;7.60;;;25.40;99.90;;;;;;5083720;28;20221;-78
2021/07/30 07:48:10;;;;;;;8.27;7.47;;;25.50;99.90;;;;;;5079611;28;20233;-77
2021/07/30 07:50:37;;;;;;;8.85;7.95;;;25.70;99.90;;;;;;5081475;28;20234;-78
2021/07/30 07:53:13;;;;;;;9.32;8.02;;;25.60;99.90;;;;;;5080099;28;20229;-77
2021/07/30 07:55:40;;;;;;;8.45;7.65;;;25.70;99.90;;;;;;5081267;28;20312;-76
2021/07/30 07:58:07;;;;;;;9.32;6.82;;;25.70;99.90;;;;;;5081638;27;20333;-78
2021/07/30 08:00:36;;;;;;;10.20;8.30;;;25.80;99.90;;;;;;5081632;28;20381;-77
2021/07/30 08:03:04;;;;;;;8.40;7.63;;;25.90;99.90;;;;;;5084567;28;20671;-78
2021/07/30 08:05:31;;;;;;;7.80;7.10;;;25.90;99.90;;;;;;5081017;27;21047;-78
2021/07/30 08:07:58;;;;;;;8.38;7.57;;;26.10;99.90;;;;;;5086163;27;20237;-78
2021/07/30 08:10:25;;;;;;;9.13;8.23;;;26.10;99.90;;;;;;5083180;28;20635;-79
2021/07/30 08:12:52;;;;;;;8.85;8.00;;;26.20;99.90;;;;;;5085049;28;20698;-79
2021/07/30 08:15:19;;;;;;;8.80;7.90;;;26.20;99.90;;;;;;5081014;28;20217;-79
2021/07/30 08:17:48;;;;;;;8.70;8.00;;;26.20;99.90;;;;;;5081556;28;20221;-78
2021/07/30 08:20:16;;;;;;;8.07;7.38;;;26.20;99.90;;;;;;5090080;28;20246;-79
2021/07/30 08:22:44;;;;;;;8.90;8.10;;;26.30;99.90;;;;;;5084123;28;20229;-78
2021/07/30 08:25:13;;;;;;;8.15;7.45;;;26.40;99.90;;;;;;5078378;28;20243;-79
2021/07/30 08:27:40;;;;;;;8.85;7.30;;;26.40;99.90;;;;;;5081779;28;20278;-79
2021/07/30 08:30:09;;;;;;;9.52;8.60;;;26.40;99.90;;;;;;5083658;28;20761;-79
2021/07/30 08:32:36;;;;;;;10.90;7.75;;;26.40;99.90;;;;;;5081461;28;20221;-78
2021/07/30 08:35:06;;;;;;;7.90;7.22;;;26.40;99.90;;;;;;5082918;28;20702;-79
2021/07/30 08:37:34;;;;;;;8.55;7.75;;;26.60;99.90;;;;;;5083800;28;20675;-79
2021/07/30 08:40:01;;;;;;;8.57;7.68;;;26.80;99.90;;;;;;5083007;28;20312;-80
2021/07/30 08:42:35;;;;;;;9.85;7.22;;;27.00;99.90;;;;;;5082360;28;20224;-78
2021/07/30 08:45:03;;;;;;;7.35;6.70;;;27.10;99.90;;;;;;5082225;28;20282;-78
2021/07/30 08:47:30;;;;;;;8.30;7.60;;;27.40;99.90;;;;;;5078488;28;20225;-79
2021/07/30 08:49:58;;;;;;;9.52;8.15;;;27.50;99.90;;;;;;5080748;28;20287;-80
2021/07/30 08:52:32;;;;;;;7.97;7.28;;;27.50;99.90;;;;;;5080606;28;20229;-79
2021/07/30 08:54:59;;;;;;;8.40;7.60;;;27.40;99.90;;;;;;5085104;28;20236;-78
2021/07/30 08:57:26;;;;;;;9.02;8.23;;;27.50;99.90;;;;;;5080310;28;20305;-79
2021/07/30 08:59:53;;;;;;;9.20;8.25;;;27.50;99.90;;;;;;5083431;28;20629;-78
2021/07/30 09:02:20;;;;;;;9.30;8.25;;;27.50;99.90;;;;;;5081109;28;20217;-78
2021/07/30 09:04:47;;;;;;;8.00;7.22;;;27.50;99.90;;;;;;5082135;27;20750;-79
2021/07/30 09:07:15;;;;;;;8.07;7.30;;;27.50;99.90;;;;;;5081762;28;20282;-79
2021/07/30 09:09:54;;;;;;;8.15;7.35;;;27.40;99.90;;;;;;5082541;27;20258;-78
2021/07/30 09:12:22;;;;;;;8.90;8.00;;;27.50;99.90;;;;;;5082634;28;20304;-79
2021/07/30 09:14:49;;;;;;;8.98;8.07;;;27.40;99.90;;;;;;5078740;28;20248;-79
2021/07/30 09:17:16;;;;;;;8.02;7.22;;;27.50;99.90;;;;;;5082370;28;20882;-78
2021/07/30 09:20:00;;;;;;;8.38;7.18;;;27.80;99.90;;;;;;5079248;28;20217;-79
2021/07/30 09:22:27;;;;;;;7.80;7.10;;;28.00;99.90;;;;;;5083383;28;20244;-80
2021/07/30 09:24:58;;;;;;;9.02;8.23;;;28.30;99.90;;;;;;5079756;28;20314;-79
2021/07/30 09:27:33;;;;;;;9.05;7.38;;;28.50;99.90;;;;;;5081781;28;20260;-78
2021/07/30 09:30:14;;;;;;;8.27;7.43;;;28.60;99.90;;;;;;5079536;28;20277;-79
2021/07/30 09:32:42;;;;;;;8.30;7.50;;;28.50;99.90;;;;;;5081999;27;20221;-79
2021/07/30 09:35:09;;;;;;;8.80;7.90;;;28.50;99.90;;;;;;5080869;28;20233;-78
2021/07/30 09:37:37;;;;;;;8.13;7.30;;;28.70;99.90;;;;;;5082587;28;20225;-79
2021/07/30 09:40:19;;;;;;;8.70;7.55;;;28.70;99.90;;;;;;5083336;28;20228;-80
2021/07/30 09:42:46;;;;;;;8.07;7.28;;;28.70;99.90;;;;;;5082212;27;21071;-78
2021/07/30 09:45:14;;;;;;;9.15;8.25;;;28.40;99.90;;;;;;5071846;27;20583;-79
2021/07/30 09:47:47;;;;;;;9.25;8.35;;;28.40;99.90;;;;;;5084880;28;20221;-78
2021/07/30 09:50:14;;;;;;;7.80;7.05;;;28.50;99.90;;;;;;5082895;27;20225;-79
2021/07/30 09:52:42;;;;;;;8.48;7.68;;;28.70;99.90;;;;;;5080082;27;20226;-79
2021/07/30 09:55:12;;;;;;;8.50;7.70;;;28.80;99.90;;;;;;5084411;28;20229;-78
2021/07/30 09:57:40;;;;;;;8.15;7.45;;;28.80;99.90;;;;;;5085494;28;20232;-79
2021/07/30 10:00:09;;;;;;;8.50;7.70;;;28.70;99.90;;;;;;5083430;28;20225;-81
2021/07/30 10:02:37;;;;;;;8.27;7.50;;;28.70;99.90;;;;;;5086649;28;20234;-81
2021/07/30 10:05:06;;;;;;;8.52;7.82;;;28.70;99.90;;;;;;5087331;28;20324;-79
2021/07/30 10:07:36;;;;;;;8.25;7.45;;;28.90;99.90;;;;;;5080318;28;20570;-80
2021/07/30 10:10:08;;;;;;;8.32;7.63;;;28.90;99.90;;;;;;5091038;27;20217;-79
2021/07/30 10:12:39;;;;;;;8.90;8.05;;;29.00;99.90;;;;;;5084007;27;20233;-79
2021/07/30 10:15:08;;;;;;;10.77;7.90;;;29.10;99.90;;;;;;5082266;28;20584;-78
2021/07/30 10:17:37;;;;;;;7.95;7.22;;;29.00;99.90;;;;;;5082853;28;20229;-79
2021/07/30 10:20:05;;;;;;;8.98;8.10;;;28.90;99.90;;;;;;5075848;28;20760;-80
2021/07/30 10:22:40;;;;;;;9.07;8.30;;;29.00;99.90;;;;;;5081449;28;20210;-81
2021/07/30 10:25:13;;;;;;;11.25;9.98;;;29.00;99.90;;;;;;5080689;28;20229;-79
2021/07/30 10:27:44;;;;;;;11.40;9.50;;;29.00;99.90;;;;;;5083423;27;20275;-78
2021/07/30 10:30:14;;;;;;;9.80;8.80;;;28.90;99.90;;;;;;5084836;27;20342;-79
2021/07/30 10:32:46;;;;;;;9.10;8.30;;;29.10;99.90;;;;;;5082113;28;20221;-78
2021/07/30 10:35:15;;;;;;;10.32;8.82;;;29.10;99.90;;;;;;5070365;28;20765;-80
2021/07/30 10:37:43;;;;;;;9.60;8.60;;;29.10;99.90;;;;;;5071967;28;20225;-79
2021/07/30 10:40:17;;;;;;;8.55;7.53;;;29.20;99.90;;;;;;5075666;28;20218;-78
2021/07/30 10:43:02;;;;;;;7.95;7.25;;;29.40;99.90;;;;;;5079444;28;20213;-79
2021/07/30 10:45:29;;;;;;;7.72;6.90;;;29.40;99.90;;;;;;5085127;27;20352;-80
2021/07/30 10:48:30;;;;;;;7.25;6.55;;;29.50;99.90;;;;;;5086757;27;20572;-78
2021/07/30 10:50:59;;;;;;;8.90;7.07;;;29.70;99.90;;;;;;5006602;28;20212;-78
2021/07/30 10:53:45;;;;;;;9.15;6.88;;;30.00;99.90;;;;;;5008935;28;20227;-79
2021/07/30 10:56:40;;;;;;;6.90;6.35;;;30.20;99.90;;;;;;5049731;28;20317;-78
2021/07/30 10:59:09;;;;;;;6.35;5.82;;;30.30;99.90;;;;;;5070478;28;20397;-79
2021/07/30 11:02:09;;;;;;;10.55;6.57;;;30.50;99.90;;;;;;5079945;28;20233;-80
2021/07/30 11:04:38;;;;;;;7.07;6.35;;;30.80;99.90;;;;;;5000663;28;20232;-79
2021/07/30 11:07:08;;;;;;;6.70;6.00;;;31.00;99.90;;;;;;4994514;28;20216;-80
2021/07/30 11:09:40;;;;;;;7.25;5.90;;;30.90;99.90;;;;;;5039018;28;20281;-79
2021/07/30 11:12:24;;;;;;;6.80;6.10;;;30.90;99.90;;;;;;5077143;28;20281;-79
2021/07/30 11:14:53;;;;;;;7.97;6.50;;;30.70;99.90;;;;;;5074438;27;20230;-79
2021/07/30 11:17:20;;;;;;;7.60;6.00;;;30.60;99.90;;;;;;5076706;27;20246;-81
2021/07/30 11:19:49;;;;;;;6.38;5.78;;;30.50;99.90;;;;;;5083764;28;20747;-80
2021/07/30 11:22:35;;;;;;;10.45;6.40;;;30.50;99.90;;;;;;5083173;28;20217;-79
2021/07/30 11:25:02;;;;;;;7.45;6.60;;;30.40;99.90;;;;;;5080359;28;20637;-81
2021/07/30 11:27:29;;;;;;;7.70;6.75;;;30.30;99.90;;;;;;5084294;28;20221;-79
2021/07/30 11:29:58;;;;;;;8.40;6.70;;;30.20;99.90;;;;;;5087103;28;20221;-80
2021/07/30 11:32:25;;;;;;;7.18;6.28;;;30.20;99.90;;;;;;5089233;27;20224;-79
2021/07/30 11:34:56;;;;;;;6.97;6.05;;;30.30;99.90;;;;;;5091656;27;20225;-79
2021/07/30 11:37:26;;;;;;;8.55;6.22;;;30.30;99.90;;;;;;5088384;28;20238;-79
2021/07/30 11:39:54;;;;;;;6.70;6.03;;;30.30;99.90;;;;;;5083515;27;20240;-79
2021/07/30 11:42:26;;;;;;;8.52;7.10;;;30.30;99.90;;;;;;5077892;27;20228;-79
2021/07/30 11:44:56;;;;;;;6.38;5.78;;;30.40;99.90;;;;;;5089677;27;20300;-82
2021/07/30 11:47:27;;;;;;;6.60;6.00;;;30.40;99.90;;;;;;5087751;28;20221;-79
2021/07/30 11:50:05;;;;;;;7.82;7.03;;;30.40;99.90;;;;;;5083251;28;21153;-79
2021/07/30 11:52:32;;;;;;;7.65;6.43;;;30.40;99.90;;;;;;5087992;28;20221;-78
2021/07/30 11:55:15;;;;;;;9.20;6.80;;;30.40;99.90;;;;;;5094981;27;20228;-79
2021/07/30 11:57:43;;;;;;;8.82;6.32;;;30.50;99.90;;;;;;5087935;28;20221;-79
2021/07/30 12:00:10;;;;;;;7.30;6.35;;;30.40;99.90;;;;;;5085347;28;20221;-80
2021/07/30 12:02:39;;;;;;;8.43;6.72;;;30.30;99.90;;;;;;5084716;28;20217;-79
2021/07/30 12:05:06;;;;;;;8.52;6.72;;;30.40;99.90;;;;;;5091754;27;20222;-79
2021/07/30 12:07:36;;;;;;;6.38;5.78;;;30.40;99.90;;;;;;5094003;27;20225;-79
2021/07/30 12:10:06;;;;;;;7.25;6.55;;;30.40;99.90;;;;;;5091762;28;20300;-79
2021/07/30 12:12:38;;;;;;;6.97;6.32;;;30.50;99.90;;;;;;5089001;27;20228;-79
2021/07/30 12:15:06;;;;;;;10.43;6.88;;;30.60;99.90;;;;;;5088632;27;20278;-79
2021/07/30 12:17:34;;;;;;;8.15;6.93;;;30.60;99.90;;;;;;5090828;28;20590;-78
2021/07/30 12:20:05;;;;;;;9.07;6.57;;;30.60;99.90;;;;;;5087958;28;20686;-79
2021/07/30 12:22:41;;;;;;;6.57;5.97;;;30.60;99.90;;;;;;5088430;28;20596;-79
2021/07/30 12:25:11;;;;;;;7.28;6.55;;;30.70;99.90;;;;;;5090629;27;20217;-79
2021/07/30 12:27:38;;;;;;;7.63;6.53;;;30.60;99.90;;;;;;5091691;28;20221;-79
2021/07/30 12:30:07;;;;;;;9.68;6.70;;;30.50;99.90;;;;;;5090703;28;20736;-78
2021/07/30 12:32:39;;;;;;;6.88;6.05;;;30.60;99.90;;;;;;5087360;27;20221;-79
2021/07/30 12:35:11;;;;;;;7.15;6.45;;;30.80;99.90;;;;;;5090719;28;20221;-79
2021/07/30 12:37:39;;;;;;;7.00;6.40;;;30.60;99.90;;;;;;5098183;27;20691;-80
2021/07/30 12:40:08;;;;;;;8.25;6.40;;;30.60;99.90;;;;;;5087212;28;20224;-79
2021/07/30 12:42:36;;;;;;;8.43;6.88;;;30.90;99.90;;;;;;5087496;28;20245;-79
2021/07/30 12:48:08;;;;;;;6.93;6.07;;;30.60;99.90;;;;;;5066232;27;20220;-79
2021/07/30 12:54:41;;;;;;;8.00;6.68;;;30.40;99.90;;;;;;5056945;28;20310;-79
2021/07/30 13:04:23;;;;;;;7.13;6.53;;;30.70;99.90;;;;;;4986255;28;20711;-79
2021/07/30 13:07:01;;;;;;;7.38;6.57;;;30.50;99.90;;;;;;4980410;28;20230;-79
2021/07/30 13:15:32;;;;;;;7.35;6.50;;;30.40;99.90;;;;;;5001853;28;20228;-78